createdAt,value
2019-02-05T00:00:07.314Z,64.50
2019-02-05T00:02:35.255Z,65.50
2019-02-05T00:05:04.373Z,64.90
2019-02-05T00:07:32.551Z,65.10
2019-02-05T00:10:00.519Z,65.40
2019-02-05T00:12:29.921Z,65.80
2019-02-05T00:14:57.892Z,65.80
2019-02-05T00:17:25.833Z,66.30
2019-02-05T00:19:53.831Z,66.30
2019-02-05T00:22:22.210Z,66.40
2019-02-05T00:24:51.373Z,66.50
2019-02-05T00:27:19.377Z,66.50
2019-02-05T00:29:49.152Z,66.50
2019-02-05T00:32:17.055Z,66.70
2019-02-05T00:34:45.205Z,66.90
2019-02-05T00:37:14.198Z,67.30
2019-02-05T00:39:42.273Z,67.60
2019-02-05T00:42:10.550Z,67.90
2019-02-05T00:44:39.595Z,68.10
2019-02-05T00:47:07.636Z,68.40
2019-02-05T00:49:35.682Z,68.90
2019-02-05T00:52:03.679Z,69.20
2019-02-05T00:54:33.262Z,69.70
2019-02-05T00:57:01.462Z,70.10
2019-02-05T00:59:29.511Z,70.50
2019-02-05T01:01:57.503Z,70.80
2019-02-05T01:04:26.573Z,71.20
2019-02-05T01:06:54.676Z,72.30
2019-02-05T01:09:24.487Z,71.70
2019-02-05T01:11:52.554Z,72.10
2019-02-05T01:14:20.502Z,72.30
2019-02-05T01:16:49.857Z,72.20
2019-02-05T01:19:17.881Z,72.00
2019-02-05T01:21:45.890Z,72.80
2019-02-05T01:24:13.836Z,74.10
2019-02-05T01:26:42.009Z,74.40
2019-02-05T01:29:10.055Z,75.30
2019-02-05T01:31:38.160Z,75.50
2019-02-05T01:34:06.224Z,75.90
2019-02-05T01:36:35.878Z,76.20
2019-02-05T01:39:04.910Z,77.60
2019-02-05T01:41:33.312Z,77.00
2019-02-05T01:44:01.249Z,77.20
2019-02-05T01:46:29.656Z,77.70
2019-02-05T01:48:57.607Z,78.20
2019-02-05T01:51:25.696Z,79.00
2019-02-05T01:53:53.666Z,78.60
2019-02-05T01:56:21.637Z,79.70
2019-02-05T01:58:49.707Z,79.10
2019-02-05T02:01:17.679Z,79.30
2019-02-05T02:03:45.751Z,79.50
2019-02-05T02:06:13.718Z,79.70
2019-02-05T02:08:41.869Z,79.80
2019-02-05T02:11:09.838Z,79.90
2019-02-05T02:13:37.935Z,80.10
2019-02-05T02:16:05.904Z,80.50
2019-02-05T02:18:33.852Z,80.80
2019-02-05T02:21:01.914Z,81.00
2019-02-05T02:23:31.734Z,81.30
2019-02-05T02:26:01.424Z,81.90
2019-02-05T02:28:29.445Z,82.50
2019-02-05T02:30:57.688Z,82.10
2019-02-05T02:33:25.791Z,82.10
2019-02-05T02:35:53.876Z,83.00
2019-02-05T02:38:21.898Z,82.30
2019-02-05T02:40:50.078Z,82.70
2019-02-05T02:43:18.050Z,82.80
2019-02-05T02:45:47.026Z,82.90
2019-02-05T02:48:15.148Z,83.00
2019-02-05T02:50:43.106Z,83.10
2019-02-05T02:53:11.076Z,83.50
2019-02-05T02:55:40.088Z,83.60
2019-02-05T02:58:08.011Z,83.90
2019-02-05T03:00:36.080Z,84.10
2019-02-05T03:03:05.916Z,83.80
2019-02-05T03:05:35.629Z,84.30
2019-02-05T03:08:03.706Z,84.50
2019-02-05T03:10:31.658Z,84.70
2019-02-05T03:13:00.159Z,85.60
2019-02-05T03:15:28.204Z,85.00
2019-02-05T03:17:57.160Z,84.90
2019-02-05T03:20:27.024Z,85.70
2019-02-05T03:22:55.928Z,85.10
2019-02-05T03:25:23.874Z,85.40
2019-02-05T03:27:53.927Z,86.80
2019-02-05T03:30:21.993Z,86.10
2019-02-05T03:32:51.056Z,85.90
2019-02-05T03:35:18.956Z,86.90
2019-02-05T03:37:47.022Z,86.30
2019-02-05T03:40:15.470Z,86.20
2019-02-05T03:42:44.468Z,86.40
2019-02-05T03:45:12.472Z,86.50
2019-02-05T03:47:40.537Z,86.40
2019-02-05T03:50:08.473Z,86.30
2019-02-05T03:52:36.478Z,87.50
2019-02-05T03:55:04.414Z,87.30
2019-02-05T03:57:32.501Z,87.10
2019-02-05T04:00:00.561Z,87.40
2019-02-05T04:02:28.938Z,87.30
2019-02-05T04:04:58.236Z,87.40
2019-02-05T04:07:26.340Z,87.60
2019-02-05T04:09:55.739Z,88.40
2019-02-05T04:12:23.918Z,88.10
2019-02-05T04:14:52.198Z,88.50
2019-02-05T04:17:20.701Z,88.50
2019-02-05T04:19:48.853Z,88.70
2019-02-05T04:22:16.823Z,89.40
2019-02-05T04:24:44.881Z,88.90
2019-02-05T04:27:17.130Z,89.00
2019-02-05T04:29:45.205Z,89.00
2019-02-05T04:32:13.276Z,88.90
2019-02-05T04:34:41.682Z,89.10
2019-02-05T04:37:11.389Z,89.30
2019-02-05T04:39:39.670Z,89.50
2019-02-05T04:42:08.620Z,89.60
2019-02-05T04:44:37.719Z,90.20
2019-02-05T04:47:07.267Z,89.80
2019-02-05T04:49:36.203Z,89.80
2019-02-05T04:52:04.330Z,89.80
2019-02-05T04:54:32.298Z,89.80
2019-02-05T04:57:00.238Z,90.00
2019-02-05T04:59:28.341Z,90.00
2019-02-05T05:01:56.282Z,90.30
2019-02-05T05:04:24.282Z,90.00
2019-02-05T05:06:52.253Z,90.10
2019-02-05T05:09:20.219Z,90.10
2019-02-05T05:11:49.909Z,90.10
2019-02-05T05:14:18.003Z,90.50
2019-02-05T05:16:47.115Z,90.20
2019-02-05T05:19:15.167Z,90.30
2019-02-05T05:21:45.033Z,90.30
2019-02-05T05:24:13.127Z,90.40
2019-02-05T05:26:41.103Z,90.30
2019-02-05T05:29:08.998Z,90.40
2019-02-05T05:31:37.047Z,90.50
2019-02-05T05:34:05.001Z,90.40
2019-02-05T05:36:33.895Z,90.60
2019-02-05T05:39:01.971Z,90.30
2019-02-05T05:41:31.548Z,90.50
2019-02-05T05:44:00.567Z,90.40
2019-02-05T05:46:30.480Z,90.40
2019-02-05T05:48:58.454Z,90.90
2019-02-05T05:51:27.446Z,90.30
2019-02-05T05:53:56.928Z,90.30
2019-02-05T05:56:24.933Z,90.10
2019-02-05T05:58:52.903Z,90.10
2019-02-05T06:01:24.065Z,90.10
2019-02-05T06:03:52.122Z,90.00
2019-02-05T06:06:20.106Z,89.80
2019-02-05T06:08:48.046Z,89.70
2019-02-05T06:11:17.617Z,89.60
2019-02-05T06:13:46.136Z,89.30
2019-02-05T06:16:14.236Z,89.10
2019-02-05T06:18:42.206Z,88.60
2019-02-05T06:21:13.591Z,88.20
2019-02-05T06:23:41.695Z,88.00
2019-02-05T06:26:09.696Z,87.90
2019-02-05T06:28:37.952Z,87.80
2019-02-05T06:31:06.992Z,87.90
2019-02-05T06:33:35.017Z,88.40
2019-02-05T06:36:04.650Z,89.10
2019-02-05T06:38:32.621Z,88.90
2019-02-05T06:41:02.739Z,89.50
2019-02-05T06:43:30.704Z,89.50
2019-02-05T06:45:59.088Z,89.20
2019-02-05T06:48:27.055Z,89.00
2019-02-05T06:50:56.906Z,88.40
2019-02-05T06:53:26.462Z,88.60
2019-02-05T06:55:54.412Z,88.10
2019-02-05T06:58:22.491Z,87.90
2019-02-05T07:00:50.452Z,88.50
2019-02-05T07:03:18.864Z,88.30
2019-02-05T07:05:46.813Z,87.30
2019-02-05T07:08:15.497Z,87.20
2019-02-05T07:10:43.490Z,87.10
2019-02-05T07:13:11.460Z,87.10
2019-02-05T07:15:39.398Z,87.20
2019-02-05T07:18:07.523Z,87.20
2019-02-05T07:20:35.964Z,87.80
2019-02-05T07:23:04.023Z,86.90
2019-02-05T07:25:32.023Z,85.80
2019-02-05T07:28:00.379Z,85.20
2019-02-05T07:30:28.472Z,84.50
2019-02-05T07:32:56.618Z,82.80
2019-02-05T07:35:24.616Z,82.60
2019-02-05T07:37:52.793Z,81.20
2019-02-05T07:40:21.272Z,78.40
2019-02-05T07:42:49.446Z,76.80
2019-02-05T07:45:17.386Z,74.30
2019-02-05T07:47:47.521Z,72.80
2019-02-05T07:50:15.723Z,69.70
2019-02-05T07:52:44.103Z,67.30
2019-02-05T07:55:12.060Z,64.80
2019-02-05T07:57:40.822Z,63.30
2019-02-05T08:00:08.895Z,60.70
2019-02-05T08:02:38.509Z,59.90
2019-02-05T08:05:06.615Z,58.80
2019-02-05T08:07:36.716Z,57.90
2019-02-05T08:10:04.465Z,57.30
2019-02-05T08:12:33.768Z,57.40
2019-02-05T08:15:01.754Z,57.40
2019-02-05T08:17:30.212Z,57.40
2019-02-05T08:19:58.307Z,57.10
2019-02-05T08:22:26.454Z,56.60
2019-02-05T08:24:54.453Z,54.70
2019-02-05T08:27:22.393Z,54.70
2019-02-05T08:29:51.863Z,54.10
2019-02-05T08:32:20.881Z,53.10
2019-02-05T08:34:48.991Z,53.00
2019-02-05T08:37:17.780Z,52.20
2019-02-05T08:39:45.748Z,51.30
2019-02-05T08:42:14.846Z,51.00
2019-02-05T08:44:42.813Z,48.70
2019-02-05T08:47:10.752Z,47.50
2019-02-05T08:49:38.839Z,50.00
2019-02-05T08:52:06.826Z,50.60
2019-02-05T08:54:35.199Z,50.80
2019-02-05T08:57:03.253Z,50.50
2019-02-05T08:59:31.245Z,49.70
2019-02-05T09:01:59.225Z,47.10
2019-02-05T09:04:28.890Z,44.80
2019-02-05T09:06:58.662Z,43.50
2019-02-05T09:09:26.686Z,42.10
2019-02-05T09:11:54.782Z,44.70
2019-02-05T09:14:23.031Z,46.30
2019-02-05T09:16:51.128Z,46.90
2019-02-05T09:19:19.207Z,47.10
2019-02-05T09:21:47.453Z,47.20
2019-02-05T09:24:15.551Z,46.00
2019-02-05T09:26:43.491Z,45.80
2019-02-05T09:29:11.696Z,46.40
2019-02-05T09:31:40.460Z,45.40
2019-02-05T09:34:08.427Z,46.10
2019-02-05T09:36:36.624Z,46.80
2019-02-05T09:39:06.814Z,46.90
2019-02-05T09:41:34.929Z,45.40
2019-02-05T09:44:04.180Z,44.80
2019-02-05T09:46:32.188Z,43.90
2019-02-05T09:49:00.159Z,44.50
2019-02-05T09:51:28.536Z,43.00
2019-02-05T09:53:56.506Z,43.30
2019-02-05T09:56:24.470Z,44.20
2019-02-05T09:58:52.550Z,42.20
2019-02-05T10:01:20.624Z,42.00
2019-02-05T10:03:48.568Z,40.70
2019-02-05T10:06:16.530Z,41.10
2019-02-05T10:08:45.046Z,41.20
2019-02-05T10:11:13.010Z,40.30
2019-02-05T10:13:41.283Z,38.40
2019-02-05T10:16:09.248Z,38.30
2019-02-05T10:18:38.929Z,37.00
2019-02-05T10:21:07.979Z,36.80
2019-02-05T10:23:35.903Z,36.40
2019-02-05T10:26:04.514Z,36.60
2019-02-05T10:28:32.982Z,36.60
2019-02-05T10:31:00.967Z,35.00
2019-02-05T10:33:28.931Z,35.50
2019-02-05T10:35:56.846Z,35.10
2019-02-05T10:38:24.842Z,34.80
2019-02-05T10:40:52.818Z,34.70
2019-02-05T10:43:21.015Z,33.90
2019-02-05T10:45:50.015Z,33.40
2019-02-05T10:48:17.977Z,33.60
2019-02-05T10:50:45.860Z,34.80
2019-02-05T10:53:14.102Z,34.80
2019-02-05T10:55:42.144Z,35.00
2019-02-05T10:58:10.092Z,35.60
2019-02-05T11:00:39.757Z,37.40
2019-02-05T11:03:08.795Z,37.70
2019-02-05T11:05:36.754Z,37.80
2019-02-05T11:08:04.660Z,37.50
2019-02-05T11:10:32.591Z,38.60
2019-02-05T11:13:00.512Z,38.10
2019-02-05T11:15:28.456Z,40.40
2019-02-05T11:17:56.824Z,41.90
2019-02-05T11:20:25.262Z,44.10
2019-02-05T11:22:53.141Z,45.30
2019-02-05T11:25:21.043Z,47.30
2019-02-05T11:27:48.984Z,48.50
2019-02-05T11:30:20.397Z,49.60
2019-02-05T11:32:46.396Z,50.70
2019-02-05T11:35:14.349Z,51.10
2019-02-05T11:37:42.292Z,52.60
2019-02-05T11:40:10.490Z,53.70
2019-02-05T11:42:38.516Z,54.40
2019-02-05T11:45:06.472Z,55.40
2019-02-05T11:47:35.600Z,56.60
2019-02-05T11:50:03.620Z,57.00
2019-02-05T11:52:31.527Z,58.50
2019-02-05T11:54:59.973Z,58.50
2019-02-05T11:57:28.321Z,59.30
2019-02-05T11:59:56.242Z,60.00
2019-02-05T12:02:24.130Z,60.50
2019-02-05T12:04:52.080Z,61.10
2019-02-05T12:07:19.980Z,61.80
2019-02-05T12:09:48.078Z,62.10
2019-02-05T12:12:16.023Z,61.30
2019-02-05T12:14:43.894Z,61.90
2019-02-05T12:17:12.150Z,61.50
2019-02-05T12:19:40.070Z,61.70
2019-02-05T12:22:07.962Z,62.40
2019-02-05T12:24:35.848Z,63.20
2019-02-05T12:27:03.810Z,62.00
2019-02-05T12:29:31.715Z,62.50
2019-02-05T12:31:59.740Z,63.90
2019-02-05T12:34:28.349Z,62.90
2019-02-05T12:36:56.574Z,63.30
2019-02-05T12:39:24.608Z,63.10
2019-02-05T12:41:52.885Z,63.20
2019-02-05T12:44:21.252Z,63.50
2019-02-05T12:46:49.151Z,64.20
2019-02-05T12:49:17.100Z,63.50
2019-02-05T12:51:45.043Z,63.00
2019-02-05T12:54:13.331Z,60.90
2019-02-05T12:56:41.307Z,61.50
2019-02-05T12:59:09.227Z,59.90
2019-02-05T13:01:37.097Z,61.30
2019-02-05T13:04:05.918Z,62.10
2019-02-05T13:06:33.833Z,62.00
2019-02-05T13:09:01.761Z,60.40
2019-02-05T13:11:30.568Z,59.80
2019-02-05T13:13:58.691Z,58.60
2019-02-05T13:16:26.923Z,57.00
2019-02-05T13:18:55.203Z,56.30
2019-02-05T13:21:23.433Z,57.70
2019-02-05T13:23:51.563Z,59.10
2019-02-05T13:26:19.754Z,61.00
2019-02-05T13:28:47.792Z,60.90
2019-02-05T13:31:15.981Z,60.40
2019-02-05T13:33:44.333Z,60.10
2019-02-05T13:36:12.473Z,60.50
2019-02-05T13:38:40.640Z,60.50
2019-02-05T13:41:08.734Z,59.40
2019-02-05T13:43:37.160Z,59.20
2019-02-05T13:46:24.174Z,60.10
2019-02-05T13:49:10.969Z,59.60
2019-02-05T13:51:39.511Z,59.30
2019-02-05T13:54:07.847Z,60.70
2019-02-05T13:56:36.143Z,62.10
2019-02-05T13:59:04.023Z,63.10
2019-02-05T14:01:32.135Z,63.30
2019-02-05T14:04:00.532Z,64.70
2019-02-05T14:06:29.076Z,65.10
2019-02-05T14:08:57.286Z,65.20
2019-02-05T14:11:25.415Z,64.30
2019-02-05T14:13:53.700Z,64.70
2019-02-05T14:16:21.771Z,63.40
2019-02-05T14:18:55.323Z,61.70
2019-02-05T14:21:19.685Z,60.80
2019-02-05T14:23:48.583Z,59.60
2019-02-05T14:26:18.395Z,59.30
2019-02-05T14:28:46.897Z,58.90
2019-02-05T14:31:15.272Z,58.00
2019-02-05T14:33:43.830Z,57.90
2019-02-05T14:36:12.173Z,57.30
2019-02-05T14:38:40.553Z,56.20
2019-02-05T14:41:09.027Z,53.60
2019-02-05T14:43:37.737Z,51.40
2019-02-05T14:46:06.549Z,50.70
2019-02-05T14:48:34.853Z,50.00
2019-02-05T14:51:04.555Z,49.90
2019-02-05T14:53:35.134Z,50.10
2019-02-05T14:56:03.616Z,48.90
2019-02-05T14:58:32.047Z,48.80
2019-02-05T15:01:00.450Z,49.80
2019-02-05T15:03:28.948Z,50.10
2019-02-05T15:05:57.379Z,49.40
2019-02-05T15:08:25.966Z,49.00
2019-02-05T15:10:54.689Z,49.00
2019-02-05T15:13:22.890Z,49.20
2019-02-05T15:15:51.009Z,48.30
2019-02-05T15:18:19.335Z,48.60
2019-02-05T15:20:47.630Z,47.80
2019-02-05T15:23:16.775Z,47.90
2019-02-05T15:25:45.071Z,47.10
2019-02-05T15:28:13.389Z,47.60
2019-02-05T15:30:41.558Z,47.10
2019-02-05T15:33:27.079Z,47.10
2019-02-05T15:36:00.701Z,47.60
2019-02-05T15:38:28.925Z,48.80
2019-02-05T15:40:57.221Z,51.50
2019-02-05T15:43:25.106Z,53.80
2019-02-05T15:45:53.173Z,56.70
2019-02-05T15:48:21.063Z,58.70
2019-02-05T15:50:49.247Z,61.20
2019-02-05T15:53:17.753Z,63.60
2019-02-05T15:55:45.790Z,65.70
2019-02-05T15:58:13.918Z,64.50
2019-02-05T16:01:00.751Z,63.50
2019-02-05T16:03:29.079Z,66.40
2019-02-05T16:05:57.471Z,70.00
2019-02-05T16:08:26.855Z,70.80
2019-02-05T16:10:54.980Z,71.20
2019-02-05T16:13:24.228Z,72.70
2019-02-05T16:15:52.184Z,75.60
2019-02-05T16:18:20.092Z,76.40
2019-02-05T16:20:48.028Z,78.60
2019-02-05T16:23:16.633Z,78.90
2019-02-05T16:25:44.522Z,80.40
2019-02-05T16:28:12.463Z,81.30
2019-02-05T16:30:40.409Z,82.60
2019-02-05T16:33:08.339Z,83.40
2019-02-05T16:35:36.279Z,83.70
2019-02-05T16:38:05.666Z,84.10
2019-02-05T16:40:33.827Z,84.90
2019-02-05T16:43:01.838Z,84.40
2019-02-05T16:45:29.756Z,85.10
2019-02-05T16:47:57.714Z,85.60
2019-02-05T16:50:25.623Z,85.90
2019-02-05T16:52:53.609Z,86.00
2019-02-05T16:55:21.515Z,86.10
2019-02-05T16:57:49.800Z,86.50
2019-02-05T17:00:17.719Z,87.30
2019-02-05T17:02:45.868Z,88.60
2019-02-05T17:05:15.335Z,89.10
2019-02-05T17:07:43.259Z,88.80
2019-02-05T17:10:11.320Z,88.60
2019-02-05T17:12:39.448Z,89.10
2019-02-05T17:15:07.374Z,88.40
2019-02-05T17:17:35.294Z,89.20
2019-02-05T17:20:03.226Z,89.30
2019-02-05T17:22:31.155Z,89.80
2019-02-05T17:24:59.103Z,90.00
2019-02-05T17:27:27.198Z,90.20
2019-02-05T17:29:55.097Z,90.30
2019-02-05T17:32:23.217Z,90.40
2019-02-05T17:34:51.307Z,90.50
2019-02-05T17:37:19.460Z,90.70
2019-02-05T17:39:47.547Z,90.80
2019-02-05T17:42:16.053Z,91.00
2019-02-05T17:44:44.071Z,90.70
2019-02-05T17:47:12.387Z,91.00
2019-02-05T17:49:40.344Z,91.20
2019-02-05T17:52:08.303Z,91.20
2019-02-05T17:54:36.446Z,91.30
2019-02-05T17:57:04.368Z,91.70
2019-02-05T17:59:32.254Z,91.60
2019-02-05T18:02:00.153Z,91.40
2019-02-05T18:04:28.450Z,91.40
2019-02-05T18:06:56.410Z,91.60
2019-02-05T18:09:24.311Z,91.40
2019-02-05T18:11:52.202Z,91.50
2019-02-05T18:14:20.093Z,91.30
2019-02-05T18:16:47.930Z,91.50
2019-02-05T18:19:15.917Z,91.60
2019-02-05T18:21:44.266Z,91.40
2019-02-05T18:24:12.403Z,91.40
2019-02-05T18:26:40.318Z,91.40
2019-02-05T18:29:08.384Z,91.30
2019-02-05T18:31:36.455Z,91.40
2019-02-05T18:34:04.618Z,91.50
2019-02-05T18:36:32.672Z,91.50
2019-02-05T18:39:00.612Z,91.40
2019-02-05T18:41:28.486Z,91.30
2019-02-05T18:43:57.402Z,91.10
2019-02-05T18:46:25.423Z,91.10
2019-02-05T18:49:04.298Z,91.20
2019-02-05T18:51:23.209Z,91.00
2019-02-05T18:53:51.622Z,90.80
2019-02-05T18:56:19.520Z,91.00
2019-02-05T18:58:47.504Z,90.90
2019-02-05T19:01:15.401Z,91.00
2019-02-05T19:03:43.568Z,91.20
2019-02-05T19:06:13.094Z,91.70
2019-02-05T19:08:41.009Z,92.20
2019-02-05T19:11:09.777Z,92.50
2019-02-05T19:13:37.662Z,92.90
2019-02-05T19:16:05.551Z,93.20
2019-02-05T19:18:33.769Z,93.00
2019-02-05T19:21:01.767Z,93.00
2019-02-05T19:23:29.854Z,93.00
2019-02-05T19:26:16.757Z,93.00
2019-02-05T19:28:45.016Z,92.90
2019-02-05T19:31:30.850Z,92.80
2019-02-05T19:33:58.892Z,92.60
2019-02-05T19:36:27.387Z,92.30
2019-02-05T19:38:55.280Z,92.20
2019-02-05T19:41:23.194Z,92.20
2019-02-05T19:43:51.303Z,92.10
2019-02-05T19:46:37.005Z,91.90
2019-02-05T19:49:21.463Z,91.70
2019-02-05T19:51:43.261Z,91.40
2019-02-05T19:54:11.676Z,91.20
2019-02-05T19:56:39.595Z,91.40
2019-02-05T19:59:07.512Z,90.80
2019-02-05T20:01:35.434Z,90.50
2019-02-05T20:04:03.336Z,90.40
2019-02-05T20:06:31.305Z,90.10
2019-02-05T20:08:59.490Z,90.10
2019-02-05T20:11:27.413Z,90.00
2019-02-05T20:13:55.501Z,89.80
2019-02-05T20:16:23.413Z,89.60
2019-02-05T20:18:51.267Z,89.30
2019-02-05T20:21:19.290Z,89.00
2019-02-05T20:23:48.765Z,88.70
2019-02-05T20:26:18.485Z,88.50
2019-02-05T20:28:46.576Z,88.10
2019-02-05T20:31:15.609Z,87.70
2019-02-05T20:33:49.961Z,87.70
2019-02-05T20:36:13.004Z,87.70
2019-02-05T20:38:40.995Z,87.40
2019-02-05T20:41:08.955Z,87.30
2019-02-05T20:43:37.278Z,87.00
2019-02-05T20:46:05.156Z,86.50
2019-02-05T20:48:33.061Z,86.30
2019-02-05T20:51:01.331Z,86.20
2019-02-05T20:53:29.467Z,85.90
2019-02-05T20:55:57.397Z,85.50
2019-02-05T20:58:25.406Z,85.50
2019-02-05T21:00:53.413Z,85.50
2019-02-05T21:03:21.751Z,85.10
2019-02-05T21:05:49.812Z,85.20
2019-02-05T21:08:17.745Z,85.20
2019-02-05T21:10:45.767Z,85.30
2019-02-05T21:13:13.850Z,85.40
2019-02-05T21:15:42.307Z,85.40
2019-02-05T21:18:10.448Z,85.20
2019-02-05T21:20:39.054Z,85.30
2019-02-05T21:23:07.138Z,85.30
2019-02-05T21:25:35.389Z,85.10
2019-02-05T21:28:03.681Z,85.00
2019-02-05T21:30:31.778Z,84.90
2019-02-05T21:32:59.909Z,84.90
2019-02-05T21:35:28.131Z,84.70
2019-02-05T21:37:56.804Z,84.80
2019-02-05T21:40:24.999Z,84.90
2019-02-05T21:42:53.038Z,84.80
2019-02-05T21:45:20.948Z,85.20
2019-02-05T21:47:48.842Z,85.10
2019-02-05T21:50:18.144Z,85.40
2019-02-05T21:52:48.556Z,85.40
2019-02-05T21:55:15.576Z,85.90
2019-02-05T21:57:43.559Z,86.80
2019-02-05T22:00:11.495Z,87.80
2019-02-05T22:02:39.523Z,89.10
2019-02-05T22:05:07.559Z,89.40
2019-02-05T22:07:35.551Z,89.90
2019-02-05T22:10:03.638Z,90.30
2019-02-05T22:12:31.640Z,90.50
2019-02-05T22:14:59.513Z,91.10
2019-02-05T22:17:27.438Z,91.40
2019-02-05T22:19:55.380Z,91.60
2019-02-05T22:22:23.294Z,91.80
2019-02-05T22:24:51.180Z,91.90
2019-02-05T22:27:19.797Z,92.00
2019-02-05T22:29:47.947Z,92.10
2019-02-05T22:32:15.856Z,92.30
2019-02-05T22:34:44.022Z,92.40
2019-02-05T22:37:11.963Z,92.40
2019-02-05T22:39:40.152Z,92.10
2019-02-05T22:42:08.078Z,92.20
2019-02-05T22:44:36.273Z,92.20
2019-02-05T22:47:04.237Z,92.20
2019-02-05T22:49:32.195Z,91.90
2019-02-05T22:52:00.073Z,91.80
2019-02-05T22:54:28.076Z,91.60
2019-02-05T22:56:56.006Z,91.70
2019-02-05T22:59:24.126Z,91.80
2019-02-05T23:01:54.848Z,91.70
2019-02-05T23:04:22.741Z,91.50
2019-02-05T23:06:50.624Z,91.60
2019-02-05T23:09:18.531Z,91.90
2019-02-05T23:11:46.515Z,92.20
2019-02-05T23:14:15.332Z,92.50
2019-02-05T23:16:43.212Z,92.60
2019-02-05T23:19:11.114Z,92.70
2019-02-05T23:21:39.414Z,92.50
2019-02-05T23:24:07.298Z,92.60
2019-02-05T23:26:35.222Z,92.70
2019-02-05T23:29:03.124Z,93.00
2019-02-05T23:31:31.035Z,93.10
2019-02-05T23:33:59.045Z,93.30
2019-02-05T23:36:26.939Z,93.60
2019-02-05T23:38:55.202Z,94.10
2019-02-05T23:41:23.169Z,94.00
2019-02-05T23:43:52.182Z,94.20
2019-02-05T23:46:20.035Z,94.20
2019-02-05T23:48:48.273Z,94.30
2019-02-05T23:51:16.186Z,94.10
2019-02-05T23:53:44.157Z,94.30
2019-02-05T23:56:12.387Z,94.20
2019-02-05T23:58:40.351Z,94.10
